Погода Верхопеньена 2 недели

Белгородская область, Россия

25 июля-07 августа
  • 25июля
    Сегодня
    +13°
    +28°
    Ясно и безоблачно
    ВремяПогодаТемператураВлажностьДавлениеВетер, м/сВероятность осадков
    00:00Ясно и безоблачно+14°C70 %742 мм0.2 м/с2 %
    03:00Ясно и безоблачно+14°C76 %742 мм0.3 м/с2 %
    06:00Ясно и безоблачно+13°C74 %742 мм0.4 м/с2 %
    09:00Ясно и безоблачно+22°C55 %742 мм0.9 м/с2 %
    12:00Ясно и безоблачно+25°C40 %742 мм0.4 м/с7 %
    15:00Ясно и безоблачно+27°C38 %741 мм1.0 м/с15 %
    18:00Ясно и безоблачно+25°C40 %741 мм1.1 м/с7 %
    21:00Ясно и безоблачно+20°C59 %741 мм0.1 м/с1 %
  • 26июля
    Пятница
    +13°
    +28°
    Облачно с прояснениями
    ВремяПогодаТемператураВлажностьДавлениеВетер, м/сВероятность осадков
    00:00Ясно и безоблачно+16°C82 %741 мм0.2 м/с2 %
    03:00Ясно и безоблачно+15°C91 %741 мм0.0 м/с2 %
    06:00Ясно и безоблачно+14°C90 %741 мм0.2 м/с2 %
    09:00Ясно и безоблачно+23°C63 %742 мм0.7 м/с2 %
    12:00Практически безоблачно+26°C53 %742 мм0.3 м/с8 %
    15:00Облачно с прояснениями+28°C46 %742 мм0.8 м/с11 %
    18:00Небольшая облачность+25°C49 %743 мм1.1 м/с22 %
    21:00Небольшая облачность+19°C71 %744 мм0.3 м/с8 %
  • 27июля
    Суббота
    +13°
    +29°
    Облачно с прояснениями
    ВремяПогодаТемператураВлажностьДавлениеВетер, м/сВероятность осадков
    00:00Небольшая облачность+15°C78 %744 мм0.3 м/с2 %
    03:00Облачно с прояснениями+15°C70 %745 мм0.5 м/с2 %
    06:00Ясно и безоблачно+14°C63 %745 мм0.5 м/с2 %
    09:00Облачно с прояснениями+21°C44 %746 мм0.0 м/с1 %
    12:00Практически безоблачно+27°C39 %747 мм0.0 м/с5 %
    15:00Облачно с прояснениями+29°C38 %746 мм0.0 м/с8 %
    18:00Облачно с прояснениями+27°C43 %746 мм0.2 м/с15 %
    21:00Облачно с прояснениями+20°C66 %747 мм0.0 м/с12 %
  • 28июля
    Воскресенье
    +17°
    +31°
    Практически безоблачно
    ВремяПогодаТемператураВлажностьДавлениеВетер, м/сВероятность осадков
    00:00Ясно и безоблачно+16°C80 %747 мм0.0 м/с3 %
    03:00Ясно и безоблачно+14°C90 %747 мм0.0 м/с2 %
    06:00Ясно и безоблачно+15°C91 %747 мм0.0 м/с2 %
    09:00Ясно и безоблачно+24°C62 %748 мм0.0 м/с2 %
    12:00Облачно с прояснениями+29°C46 %748 мм0.5 м/с17 %
    15:00Практически безоблачно+30°C40 %747 мм1.2 м/с21 %
    18:00Облачно с прояснениями+29°C41 %746 мм1.2 м/с17 %
    21:00Облачно с прояснениями+23°C57 %746 мм0.6 м/с2 %
  • 29июля
    Понедельник
    +12°
    +28°
    Небольшая облачность и лёгкий дождик
    ВремяПогодаТемператураВлажностьДавлениеВетер, м/сВероятность осадков
    00:00Ясно и безоблачно+19°C69 %745 мм0.0 м/с2 %
    03:00Ясно и безоблачно+18°C77 %744 мм0.0 м/с9 %
    06:00Практически безоблачно+18°C74 %743 мм1.4 м/с15 %
    09:00Практически безоблачно+23°C65 %743 мм3.3 м/с24 %
    12:00Облачно с прояснениями+25°C59 %743 мм4.3 м/с47 %
    15:00Небольшая облачность и лёгкий дождик+27°C38 %742 мм4.8 м/с54 %
    18:00Ясно и безоблачно+25°C36 %742 мм3.9 м/с23 %
    21:00Ясно и безоблачно+19°C46 %741 мм1.6 м/с3 %
Мы используем cookies
Соглашаюсь